sensor_id;sensor_type;location;lat;lon;timestamp;P1;durP1;ratioP1;P2;durP2;ratioP2
5795;SDS011;2924;51.458;7.046;2024-01-16T00:01:04;18.20;;;8.30;;
5795;SDS011;2924;51.458;7.046;2024-01-16T00:03:31;15.23;;;8.10;;
5795;SDS011;2924;51.458;7.046;2024-01-16T00:05:56;23.30;;;7.43;;
5795;SDS011;2924;51.458;7.046;2024-01-16T00:08:22;16.67;;;7.93;;
5795;SDS011;2924;51.458;7.046;2024-01-16T00:10:48;12.83;;;7.60;;
5795;SDS011;2924;51.458;7.046;2024-01-16T00:13:15;12.03;;;8.00;;
5795;SDS011;2924;51.458;7.046;2024-01-16T00:15:40;15.40;;;7.63;;
5795;SDS011;2924;51.458;7.046;2024-01-16T00:18:09;11.17;;;6.80;;
5795;SDS011;2924;51.458;7.046;2024-01-16T00:20:34;11.57;;;6.70;;
5795;SDS011;2924;51.458;7.046;2024-01-16T00:23:00;13.23;;;6.97;;
5795;SDS011;2924;51.458;7.046;2024-01-16T00:25:26;21.03;;;6.83;;
5795;SDS011;2924;51.458;7.046;2024-01-16T00:27:51;20.00;;;7.00;;
5795;SDS011;2924;51.458;7.046;2024-01-16T00:30:17;7.77;;;7.00;;
5795;SDS011;2924;51.458;7.046;2024-01-16T00:32:43;11.67;;;6.80;;
5795;SDS011;2924;51.458;7.046;2024-01-16T00:35:09;10.70;;;6.37;;
5795;SDS011;2924;51.458;7.046;2024-01-16T00:37:37;12.73;;;6.70;;
5795;SDS011;2924;51.458;7.046;2024-01-16T00:40:03;11.27;;;6.50;;
5795;SDS011;2924;51.458;7.046;2024-01-16T00:42:30;19.00;;;6.40;;
5795;SDS011;2924;51.458;7.046;2024-01-16T00:44:56;11.97;;;6.70;;
5795;SDS011;2924;51.458;7.046;2024-01-16T00:47:22;9.77;;;6.10;;
5795;SDS011;2924;51.458;7.046;2024-01-16T00:49:48;15.27;;;6.77;;
5795;SDS011;2924;51.458;7.046;2024-01-16T00:52:14;16.63;;;6.80;;
5795;SDS011;2924;51.458;7.046;2024-01-16T00:54:40;10.67;;;6.77;;
5795;SDS011;2924;51.458;7.046;2024-01-16T00:57:06;7.63;;;5.80;;
5795;SDS011;2924;51.458;7.046;2024-01-16T00:59:32;10.40;;;6.20;;
5795;SDS011;2924;51.458;7.046;2024-01-16T01:01:58;16.73;;;7.83;;
5795;SDS011;2924;51.458;7.046;2024-01-16T01:04:23;12.37;;;5.90;;
5795;SDS011;2924;51.458;7.046;2024-01-16T01:06:49;10.70;;;5.40;;
5795;SDS011;2924;51.458;7.046;2024-01-16T01:09:15;7.10;;;5.10;;
5795;SDS011;2924;51.458;7.046;2024-01-16T01:11:41;7.47;;;4.80;;
5795;SDS011;2924;51.458;7.046;2024-01-16T01:14:07;11.70;;;6.17;;
5795;SDS011;2924;51.458;7.046;2024-01-16T01:16:32;6.27;;;4.50;;
5795;SDS011;2924;51.458;7.046;2024-01-16T01:18:58;12.03;;;6.10;;
5795;SDS011;2924;51.458;7.046;2024-01-16T01:21:24;11.73;;;6.07;;
5795;SDS011;2924;51.458;7.046;2024-01-16T01:23:49;7.43;;;5.77;;
5795;SDS011;2924;51.458;7.046;2024-01-16T01:26:15;14.20;;;5.90;;
5795;SDS011;2924;51.458;7.046;2024-01-16T01:28:43;6.37;;;4.87;;
5795;SDS011;2924;51.458;7.046;2024-01-16T01:31:09;6.33;;;5.50;;
5795;SDS011;2924;51.458;7.046;2024-01-16T01:33:38;10.50;;;4.67;;
5795;SDS011;2924;51.458;7.046;2024-01-16T01:36:05;8.33;;;4.40;;
5795;SDS011;2924;51.458;7.046;2024-01-16T01:38:30;14.60;;;4.67;;
5795;SDS011;2924;51.458;7.046;2024-01-16T01:40:56;7.07;;;4.93;;
5795;SDS011;2924;51.458;7.046;2024-01-16T01:43:22;6.73;;;4.23;;
5795;SDS011;2924;51.458;7.046;2024-01-16T01:48:33;9.87;;;4.73;;
5795;SDS011;2924;51.458;7.046;2024-01-16T01:51:00;7.00;;;5.00;;
5795;SDS011;2924;51.458;7.046;2024-01-16T01:53:27;11.33;;;4.47;;
5795;SDS011;2924;51.458;7.046;2024-01-16T01:55:55;6.50;;;4.00;;
5795;SDS011;2924;51.458;7.046;2024-01-16T01:58:21;7.43;;;4.17;;
5795;SDS011;2924;51.458;7.046;2024-01-16T02:00:48;7.53;;;3.53;;
5795;SDS011;2924;51.458;7.046;2024-01-16T02:03:14;10.30;;;4.87;;
5795;SDS011;2924;51.458;7.046;2024-01-16T02:05:40;10.37;;;4.63;;
5795;SDS011;2924;51.458;7.046;2024-01-16T02:08:06;7.40;;;4.47;;
5795;SDS011;2924;51.458;7.046;2024-01-16T02:10:31;9.90;;;4.30;;
5795;SDS011;2924;51.458;7.046;2024-01-16T02:12:57;7.20;;;4.20;;
5795;SDS011;2924;51.458;7.046;2024-01-16T02:15:23;5.30;;;3.70;;
5795;SDS011;2924;51.458;7.046;2024-01-16T02:17:49;7.80;;;4.73;;
5795;SDS011;2924;51.458;7.046;2024-01-16T02:20:15;15.13;;;5.70;;
5795;SDS011;2924;51.458;7.046;2024-01-16T02:22:42;10.37;;;5.23;;
5795;SDS011;2924;51.458;7.046;2024-01-16T02:25:13;12.00;;;5.87;;
5795;SDS011;2924;51.458;7.046;2024-01-16T02:27:38;6.17;;;5.00;;
5795;SDS011;2924;51.458;7.046;2024-01-16T02:30:04;13.83;;;5.90;;
5795;SDS011;2924;51.458;7.046;2024-01-16T02:32:31;9.27;;;5.07;;
5795;SDS011;2924;51.458;7.046;2024-01-16T02:34:57;9.37;;;5.73;;
5795;SDS011;2924;51.458;7.046;2024-01-16T02:37:23;9.57;;;5.93;;
5795;SDS011;2924;51.458;7.046;2024-01-16T02:39:49;9.10;;;6.03;;
5795;SDS011;2924;51.458;7.046;2024-01-16T02:42:14;11.03;;;6.00;;
5795;SDS011;2924;51.458;7.046;2024-01-16T02:44:40;8.90;;;5.07;;
5795;SDS011;2924;51.458;7.046;2024-01-16T02:47:06;10.13;;;5.37;;
5795;SDS011;2924;51.458;7.046;2024-01-16T02:49:32;5.87;;;4.87;;
5795;SDS011;2924;51.458;7.046;2024-01-16T02:51:58;12.47;;;6.67;;
5795;SDS011;2924;51.458;7.046;2024-01-16T02:54:23;9.67;;;6.03;;
5795;SDS011;2924;51.458;7.046;2024-01-16T02:56:49;15.43;;;7.40;;
5795;SDS011;2924;51.458;7.046;2024-01-16T02:59:14;12.67;;;7.10;;
5795;SDS011;2924;51.458;7.046;2024-01-16T03:01:40;19.40;;;7.77;;
5795;SDS011;2924;51.458;7.046;2024-01-16T03:04:06;12.90;;;6.70;;
5795;SDS011;2924;51.458;7.046;2024-01-16T03:06:31;9.87;;;6.67;;
5795;SDS011;2924;51.458;7.046;2024-01-16T03:08:57;14.17;;;7.87;;
5795;SDS011;2924;51.458;7.046;2024-01-16T03:11:23;12.23;;;8.67;;
5795;SDS011;2924;51.458;7.046;2024-01-16T03:13:48;14.10;;;9.30;;
5795;SDS011;2924;51.458;7.046;2024-01-16T03:16:20;15.97;;;8.07;;
5795;SDS011;2924;51.458;7.046;2024-01-16T03:18:45;12.80;;;9.80;;
5795;SDS011;2924;51.458;7.046;2024-01-16T03:21:12;12.40;;;9.10;;
5795;SDS011;2924;51.458;7.046;2024-01-16T03:23:38;15.60;;;10.50;;
5795;SDS011;2924;51.458;7.046;2024-01-16T03:26:04;15.47;;;10.20;;
5795;SDS011;2924;51.458;7.046;2024-01-16T03:28:29;14.60;;;10.97;;
5795;SDS011;2924;51.458;7.046;2024-01-16T03:30:55;18.83;;;11.77;;
5795;SDS011;2924;51.458;7.046;2024-01-16T03:33:20;14.80;;;10.87;;
5795;SDS011;2924;51.458;7.046;2024-01-16T03:35:46;17.77;;;10.50;;
5795;SDS011;2924;51.458;7.046;2024-01-16T03:38:12;18.23;;;11.30;;
5795;SDS011;2924;51.458;7.046;2024-01-16T03:40:38;16.80;;;11.40;;
5795;SDS011;2924;51.458;7.046;2024-01-16T03:43:03;20.67;;;12.20;;
5795;SDS011;2924;51.458;7.046;2024-01-16T03:45:30;17.50;;;12.10;;
5795;SDS011;2924;51.458;7.046;2024-01-16T03:47:56;19.27;;;12.93;;
5795;SDS011;2924;51.458;7.046;2024-01-16T03:50:22;17.40;;;12.10;;
5795;SDS011;2924;51.458;7.046;2024-01-16T03:52:47;20.07;;;12.50;;
5795;SDS011;2924;51.458;7.046;2024-01-16T03:55:13;12.80;;;10.30;;
5795;SDS011;2924;51.458;7.046;2024-01-16T03:57:38;15.23;;;11.70;;
5795;SDS011;2924;51.458;7.046;2024-01-16T04:00:04;18.10;;;11.00;;
5795;SDS011;2924;51.458;7.046;2024-01-16T04:02:31;15.60;;;10.90;;
5795;SDS011;2924;51.458;7.046;2024-01-16T04:04:57;18.20;;;11.43;;
5795;SDS011;2924;51.458;7.046;2024-01-16T04:07:23;15.80;;;11.13;;
5795;SDS011;2924;51.458;7.046;2024-01-16T04:09:51;14.60;;;11.43;;
5795;SDS011;2924;51.458;7.046;2024-01-16T04:12:16;14.90;;;10.67;;
5795;SDS011;2924;51.458;7.046;2024-01-16T04:14:42;12.90;;;10.40;;
5795;SDS011;2924;51.458;7.046;2024-01-16T04:17:07;19.00;;;10.20;;
5795;SDS011;2924;51.458;7.046;2024-01-16T04:19:33;13.67;;;11.23;;
5795;SDS011;2924;51.458;7.046;2024-01-16T04:21:59;13.00;;;10.33;;
5795;SDS011;2924;51.458;7.046;2024-01-16T04:24:26;21.67;;;11.57;;
5795;SDS011;2924;51.458;7.046;2024-01-16T04:26:52;14.80;;;9.80;;
5795;SDS011;2924;51.458;7.046;2024-01-16T04:29:18;15.07;;;11.27;;
5795;SDS011;2924;51.458;7.046;2024-01-16T04:31:43;17.30;;;11.10;;
5795;SDS011;2924;51.458;7.046;2024-01-16T04:34:09;13.87;;;10.10;;
5795;SDS011;2924;51.458;7.046;2024-01-16T04:36:34;14.90;;;9.47;;
5795;SDS011;2924;51.458;7.046;2024-01-16T04:39:00;18.50;;;11.40;;
5795;SDS011;2924;51.458;7.046;2024-01-16T04:41:25;20.10;;;10.30;;
5795;SDS011;2924;51.458;7.046;2024-01-16T04:43:51;12.97;;;10.30;;
5795;SDS011;2924;51.458;7.046;2024-01-16T04:46:16;15.00;;;8.80;;
5795;SDS011;2924;51.458;7.046;2024-01-16T04:48:42;12.17;;;8.70;;
5795;SDS011;2924;51.458;7.046;2024-01-16T04:51:08;15.90;;;8.73;;
5795;SDS011;2924;51.458;7.046;2024-01-16T04:53:34;16.77;;;8.27;;
5795;SDS011;2924;51.458;7.046;2024-01-16T04:55:59;15.90;;;9.33;;
5795;SDS011;2924;51.458;7.046;2024-01-16T04:58:25;18.50;;;8.83;;
5795;SDS011;2924;51.458;7.046;2024-01-16T05:00:50;11.17;;;7.80;;
5795;SDS011;2924;51.458;7.046;2024-01-16T05:03:16;12.53;;;7.70;;
5795;SDS011;2924;51.458;7.046;2024-01-16T05:05:42;11.40;;;7.83;;
5795;SDS011;2924;51.458;7.046;2024-01-16T05:08:08;15.10;;;7.43;;
5795;SDS011;2924;51.458;7.046;2024-01-16T05:10:33;11.90;;;7.47;;
5795;SDS011;2924;51.458;7.046;2024-01-16T05:12:59;11.70;;;7.60;;
5795;SDS011;2924;51.458;7.046;2024-01-16T05:15:25;7.73;;;5.53;;
5795;SDS011;2924;51.458;7.046;2024-01-16T05:17:51;13.70;;;7.33;;
5795;SDS011;2924;51.458;7.046;2024-01-16T05:20:18;14.03;;;6.53;;
5795;SDS011;2924;51.458;7.046;2024-01-16T05:22:43;8.90;;;5.30;;
5795;SDS011;2924;51.458;7.046;2024-01-16T05:25:09;7.33;;;6.00;;
5795;SDS011;2924;51.458;7.046;2024-01-16T05:27:35;8.20;;;6.20;;
5795;SDS011;2924;51.458;7.046;2024-01-16T05:30:00;8.57;;;5.23;;
5795;SDS011;2924;51.458;7.046;2024-01-16T05:32:26;13.57;;;5.83;;
5795;SDS011;2924;51.458;7.046;2024-01-16T05:34:52;8.93;;;5.83;;
5795;SDS011;2924;51.458;7.046;2024-01-16T05:37:18;9.03;;;4.97;;
5795;SDS011;2924;51.458;7.046;2024-01-16T05:39:44;16.93;;;5.57;;
5795;SDS011;2924;51.458;7.046;2024-01-16T05:42:11;5.60;;;4.73;;
5795;SDS011;2924;51.458;7.046;2024-01-16T05:44:37;5.10;;;4.00;;
5795;SDS011;2924;51.458;7.046;2024-01-16T05:47:03;7.40;;;4.83;;
5795;SDS011;2924;51.458;7.046;2024-01-16T05:49:29;12.77;;;5.73;;
5795;SDS011;2924;51.458;7.046;2024-01-16T05:51:55;4.70;;;4.30;;
5795;SDS011;2924;51.458;7.046;2024-01-16T05:54:20;9.80;;;5.40;;
5795;SDS011;2924;51.458;7.046;2024-01-16T05:56:46;16.80;;;5.77;;
5795;SDS011;2924;51.458;7.046;2024-01-16T05:59:12;5.40;;;4.90;;
5795;SDS011;2924;51.458;7.046;2024-01-16T06:01:37;8.50;;;4.93;;
5795;SDS011;2924;51.458;7.046;2024-01-16T06:04:03;7.83;;;5.57;;
5795;SDS011;2924;51.458;7.046;2024-01-16T06:06:29;7.70;;;5.27;;
5795;SDS011;2924;51.458;7.046;2024-01-16T06:08:56;7.63;;;6.60;;
5795;SDS011;2924;51.458;7.046;2024-01-16T06:11:30;12.93;;;7.10;;
5795;SDS011;2924;51.458;7.046;2024-01-16T06:13:56;10.93;;;7.97;;
5795;SDS011;2924;51.458;7.046;2024-01-16T06:16:22;12.30;;;7.70;;
5795;SDS011;2924;51.458;7.046;2024-01-16T06:18:47;11.70;;;7.20;;
5795;SDS011;2924;51.458;7.046;2024-01-16T06:21:13;12.50;;;9.33;;
5795;SDS011;2924;51.458;7.046;2024-01-16T06:23:39;18.73;;;10.00;;
5795;SDS011;2924;51.458;7.046;2024-01-16T06:26:07;15.23;;;11.40;;
5795;SDS011;2924;51.458;7.046;2024-01-16T06:28:33;25.80;;;13.67;;
5795;SDS011;2924;51.458;7.046;2024-01-16T06:30:58;21.63;;;14.53;;
5795;SDS011;2924;51.458;7.046;2024-01-16T06:33:24;28.33;;;15.87;;
5795;SDS011;2924;51.458;7.046;2024-01-16T06:35:50;23.50;;;14.80;;
5795;SDS011;2924;51.458;7.046;2024-01-16T06:38:16;24.23;;;15.83;;
5795;SDS011;2924;51.458;7.046;2024-01-16T06:40:42;28.73;;;16.33;;
5795;SDS011;2924;51.458;7.046;2024-01-16T06:43:07;23.83;;;14.73;;
5795;SDS011;2924;51.458;7.046;2024-01-16T06:45:33;29.33;;;15.30;;
5795;SDS011;2924;51.458;7.046;2024-01-16T06:47:59;25.50;;;15.17;;
5795;SDS011;2924;51.458;7.046;2024-01-16T06:50:25;36.53;;;15.90;;
5795;SDS011;2924;51.458;7.046;2024-01-16T06:52:50;22.20;;;16.37;;
5795;SDS011;2924;51.458;7.046;2024-01-16T06:55:16;22.73;;;15.00;;
5795;SDS011;2924;51.458;7.046;2024-01-16T06:57:41;29.23;;;13.43;;
5795;SDS011;2924;51.458;7.046;2024-01-16T07:00:07;22.53;;;14.67;;
5795;SDS011;2924;51.458;7.046;2024-01-16T07:02:33;22.30;;;12.53;;
5795;SDS011;2924;51.458;7.046;2024-01-16T07:04:58;24.83;;;12.03;;
5795;SDS011;2924;51.458;7.046;2024-01-16T07:07:24;26.47;;;11.50;;
5795;SDS011;2924;51.458;7.046;2024-01-16T07:09:50;21.70;;;12.00;;
5795;SDS011;2924;51.458;7.046;2024-01-16T07:12:16;15.90;;;9.40;;
5795;SDS011;2924;51.458;7.046;2024-01-16T07:14:41;23.60;;;10.57;;
5795;SDS011;2924;51.458;7.046;2024-01-16T07:17:07;19.53;;;9.70;;
5795;SDS011;2924;51.458;7.046;2024-01-16T07:19:32;27.83;;;9.73;;
5795;SDS011;2924;51.458;7.046;2024-01-16T07:21:58;19.10;;;9.90;;
5795;SDS011;2924;51.458;7.046;2024-01-16T07:24:24;13.67;;;8.70;;
5795;SDS011;2924;51.458;7.046;2024-01-16T07:26:49;14.00;;;8.00;;
5795;SDS011;2924;51.458;7.046;2024-01-16T07:29:15;16.57;;;7.27;;
5795;SDS011;2924;51.458;7.046;2024-01-16T07:31:41;15.63;;;7.23;;
5795;SDS011;2924;51.458;7.046;2024-01-16T07:34:06;17.33;;;6.53;;
5795;SDS011;2924;51.458;7.046;2024-01-16T07:36:32;9.23;;;5.77;;
5795;SDS011;2924;51.458;7.046;2024-01-16T07:38:57;18.10;;;6.23;;
5795;SDS011;2924;51.458;7.046;2024-01-16T07:41:23;11.30;;;5.63;;
5795;SDS011;2924;51.458;7.046;2024-01-16T07:43:48;11.90;;;6.20;;
5795;SDS011;2924;51.458;7.046;2024-01-16T07:46:14;20.17;;;6.13;;
5795;SDS011;2924;51.458;7.046;2024-01-16T07:48:39;17.33;;;6.23;;
5795;SDS011;2924;51.458;7.046;2024-01-16T07:51:05;18.90;;;6.03;;
5795;SDS011;2924;51.458;7.046;2024-01-16T07:53:31;18.23;;;5.77;;
5795;SDS011;2924;51.458;7.046;2024-01-16T07:55:56;16.37;;;6.17;;
5795;SDS011;2924;51.458;7.046;2024-01-16T07:58:22;11.67;;;5.23;;
5795;SDS011;2924;51.458;7.046;2024-01-16T08:00:47;13.87;;;6.80;;
5795;SDS011;2924;51.458;7.046;2024-01-16T08:03:14;15.27;;;5.07;;
5795;SDS011;2924;51.458;7.046;2024-01-16T08:05:39;12.07;;;4.93;;
5795;SDS011;2924;51.458;7.046;2024-01-16T08:08:07;9.63;;;4.60;;
5795;SDS011;2924;51.458;7.046;2024-01-16T08:10:34;9.93;;;4.40;;
5795;SDS011;2924;51.458;7.046;2024-01-16T08:13:00;9.80;;;4.13;;
5795;SDS011;2924;51.458;7.046;2024-01-16T08:15:25;10.40;;;3.73;;
5795;SDS011;2924;51.458;7.046;2024-01-16T08:17:51;17.07;;;5.20;;
5795;SDS011;2924;51.458;7.046;2024-01-16T08:20:17;6.83;;;3.93;;
5795;SDS011;2924;51.458;7.046;2024-01-16T08:22:42;12.83;;;3.07;;
5795;SDS011;2924;51.458;7.046;2024-01-16T08:25:08;5.00;;;2.97;;
5795;SDS011;2924;51.458;7.046;2024-01-16T08:27:33;3.50;;;2.67;;
5795;SDS011;2924;51.458;7.046;2024-01-16T08:29:59;7.90;;;3.60;;
5795;SDS011;2924;51.458;7.046;2024-01-16T08:32:25;16.87;;;3.43;;
5795;SDS011;2924;51.458;7.046;2024-01-16T08:34:51;13.60;;;3.13;;
5795;SDS011;2924;51.458;7.046;2024-01-16T08:37:17;9.23;;;3.30;;
5795;SDS011;2924;51.458;7.046;2024-01-16T08:39:43;7.03;;;2.37;;
5795;SDS011;2924;51.458;7.046;2024-01-16T08:42:09;4.30;;;2.80;;
5795;SDS011;2924;51.458;7.046;2024-01-16T08:44:37;11.10;;;3.20;;
5795;SDS011;2924;51.458;7.046;2024-01-16T08:47:04;8.40;;;2.40;;
5795;SDS011;2924;51.458;7.046;2024-01-16T08:49:31;9.40;;;2.57;;
5795;SDS011;2924;51.458;7.046;2024-01-16T08:52:00;4.93;;;2.37;;
5795;SDS011;2924;51.458;7.046;2024-01-16T08:54:25;13.10;;;2.23;;
5795;SDS011;2924;51.458;7.046;2024-01-16T08:56:51;9.00;;;2.43;;
5795;SDS011;2924;51.458;7.046;2024-01-16T08:59:17;6.03;;;2.00;;
5795;SDS011;2924;51.458;7.046;2024-01-16T09:01:43;6.27;;;2.13;;
5795;SDS011;2924;51.458;7.046;2024-01-16T09:04:08;6.77;;;2.17;;
5795;SDS011;2924;51.458;7.046;2024-01-16T09:06:34;7.63;;;2.33;;
5795;SDS011;2924;51.458;7.046;2024-01-16T09:09:00;10.23;;;2.30;;
5795;SDS011;2924;51.458;7.046;2024-01-16T09:11:25;7.07;;;2.03;;
5795;SDS011;2924;51.458;7.046;2024-01-16T09:13:51;7.27;;;2.27;;
5795;SDS011;2924;51.458;7.046;2024-01-16T09:16:17;14.73;;;2.20;;
5795;SDS011;2924;51.458;7.046;2024-01-16T09:18:42;4.70;;;2.07;;
5795;SDS011;2924;51.458;7.046;2024-01-16T09:21:09;12.63;;;2.63;;
5795;SDS011;2924;51.458;7.046;2024-01-16T09:23:34;6.23;;;1.70;;
5795;SDS011;2924;51.458;7.046;2024-01-16T09:26:00;7.47;;;2.50;;
5795;SDS011;2924;51.458;7.046;2024-01-16T09:28:25;4.17;;;1.80;;
5795;SDS011;2924;51.458;7.046;2024-01-16T09:30:53;4.97;;;2.00;;
5795;SDS011;2924;51.458;7.046;2024-01-16T09:33:21;2.03;;;1.80;;
5795;SDS011;2924;51.458;7.046;2024-01-16T09:35:47;6.03;;;2.30;;
5795;SDS011;2924;51.458;7.046;2024-01-16T09:38:13;7.60;;;2.20;;
5795;SDS011;2924;51.458;7.046;2024-01-16T09:40:38;8.80;;;4.03;;
5795;SDS011;2924;51.458;7.046;2024-01-16T09:43:04;7.27;;;1.70;;
5795;SDS011;2924;51.458;7.046;2024-01-16T09:45:30;4.53;;;2.03;;
5795;SDS011;2924;51.458;7.046;2024-01-16T09:47:56;3.10;;;1.70;;
5795;SDS011;2924;51.458;7.046;2024-01-16T09:50:24;6.77;;;2.30;;
5795;SDS011;2924;51.458;7.046;2024-01-16T09:52:50;5.93;;;2.20;;
5795;SDS011;2924;51.458;7.046;2024-01-16T09:55:15;3.17;;;1.50;;
5795;SDS011;2924;51.458;7.046;2024-01-16T09:57:41;8.33;;;1.53;;
5795;SDS011;2924;51.458;7.046;2024-01-16T10:00:10;7.60;;;2.03;;
5795;SDS011;2924;51.458;7.046;2024-01-16T10:02:40;6.23;;;2.23;;
5795;SDS011;2924;51.458;7.046;2024-01-16T10:05:07;24.93;;;2.07;;
5795;SDS011;2924;51.458;7.046;2024-01-16T10:07:38;4.07;;;1.57;;
5795;SDS011;2924;51.458;7.046;2024-01-16T10:10:05;2.23;;;1.47;;
5795;SDS011;2924;51.458;7.046;2024-01-16T10:12:32;9.97;;;2.07;;
5795;SDS011;2924;51.458;7.046;2024-01-16T10:14:58;5.50;;;2.53;;
5795;SDS011;2924;51.458;7.046;2024-01-16T10:17:37;5.97;;;2.90;;
5795;SDS011;2924;51.458;7.046;2024-01-16T10:20:04;3.37;;;1.90;;
5795;SDS011;2924;51.458;7.046;2024-01-16T10:22:31;3.53;;;2.03;;
5795;SDS011;2924;51.458;7.046;2024-01-16T10:25:06;5.93;;;2.30;;
5795;SDS011;2924;51.458;7.046;2024-01-16T10:27:34;3.53;;;2.00;;
5795;SDS011;2924;51.458;7.046;2024-01-16T10:30:01;6.50;;;1.90;;
5795;SDS011;2924;51.458;7.046;2024-01-16T10:32:37;5.10;;;2.40;;
5795;SDS011;2924;51.458;7.046;2024-01-16T10:35:10;8.13;;;2.37;;
5795;SDS011;2924;51.458;7.046;2024-01-16T10:37:55;3.80;;;1.47;;
5795;SDS011;2924;51.458;7.046;2024-01-16T10:40:22;12.97;;;2.60;;
5795;SDS011;2924;51.458;7.046;2024-01-16T10:43:03;6.23;;;2.90;;
5795;SDS011;2924;51.458;7.046;2024-01-16T10:45:29;7.30;;;2.30;;
5795;SDS011;2924;51.458;7.046;2024-01-16T10:48:05;6.50;;;2.17;;
5795;SDS011;2924;51.458;7.046;2024-01-16T10:50:32;3.47;;;2.13;;
5795;SDS011;2924;51.458;7.046;2024-01-16T10:53:05;2.17;;;1.50;;
5795;SDS011;2924;51.458;7.046;2024-01-16T10:55:33;7.50;;;3.00;;
5795;SDS011;2924;51.458;7.046;2024-01-16T10:58:08;10.80;;;2.53;;
5795;SDS011;2924;51.458;7.046;2024-01-16T11:00:36;3.30;;;2.13;;
5795;SDS011;2924;51.458;7.046;2024-01-16T11:03:16;2.70;;;1.60;;
5795;SDS011;2924;51.458;7.046;2024-01-16T11:05:44;10.50;;;2.30;;
5795;SDS011;2924;51.458;7.046;2024-01-16T11:08:13;10.53;;;2.50;;
5795;SDS011;2924;51.458;7.046;2024-01-16T11:10:42;5.73;;;2.70;;
5795;SDS011;2924;51.458;7.046;2024-01-16T11:13:09;5.30;;;1.87;;
5795;SDS011;2924;51.458;7.046;2024-01-16T11:15:36;4.87;;;2.30;;
5795;SDS011;2924;51.458;7.046;2024-01-16T11:18:03;8.07;;;2.53;;
5795;SDS011;2924;51.458;7.046;2024-01-16T11:20:29;5.30;;;1.97;;
5795;SDS011;2924;51.458;7.046;2024-01-16T11:22:56;5.63;;;2.27;;
5795;SDS011;2924;51.458;7.046;2024-01-16T11:25:30;8.63;;;2.60;;
5795;SDS011;2924;51.458;7.046;2024-01-16T11:27:56;6.17;;;2.40;;
5795;SDS011;2924;51.458;7.046;2024-01-16T11:30:34;9.30;;;4.37;;
5795;SDS011;2924;51.458;7.046;2024-01-16T11:33:00;12.87;;;2.20;;
5795;SDS011;2924;51.458;7.046;2024-01-16T11:38:20;6.10;;;2.30;;
5795;SDS011;2924;51.458;7.046;2024-01-16T11:40:46;4.73;;;2.40;;
5795;SDS011;2924;51.458;7.046;2024-01-16T11:45:57;9.93;;;2.87;;
5795;SDS011;2924;51.458;7.046;2024-01-16T11:48:23;4.00;;;2.27;;
5795;SDS011;2924;51.458;7.046;2024-01-16T11:50:49;5.63;;;2.70;;
5795;SDS011;2924;51.458;7.046;2024-01-16T11:53:49;8.80;;;2.80;;
5795;SDS011;2924;51.458;7.046;2024-01-16T11:56:11;9.10;;;2.83;;
5795;SDS011;2924;51.458;7.046;2024-01-16T11:58:57;5.07;;;3.20;;
5795;SDS011;2924;51.458;7.046;2024-01-16T12:01:29;6.40;;;1.90;;
5795;SDS011;2924;51.458;7.046;2024-01-16T12:04:06;10.00;;;2.77;;
5795;SDS011;2924;51.458;7.046;2024-01-16T12:06:35;8.93;;;2.53;;
5795;SDS011;2924;51.458;7.046;2024-01-16T12:09:12;8.10;;;2.40;;
5795;SDS011;2924;51.458;7.046;2024-01-16T12:11:38;4.03;;;2.07;;
5795;SDS011;2924;51.458;7.046;2024-01-16T12:14:04;6.40;;;2.60;;
5795;SDS011;2924;51.458;7.046;2024-01-16T12:16:30;5.47;;;2.20;;
5795;SDS011;2924;51.458;7.046;2024-01-16T12:19:08;7.50;;;2.37;;
5795;SDS011;2924;51.458;7.046;2024-01-16T12:21:38;6.57;;;2.47;;
5795;SDS011;2924;51.458;7.046;2024-01-16T12:24:05;5.30;;;1.90;;
5795;SDS011;2924;51.458;7.046;2024-01-16T12:26:31;5.57;;;2.87;;
5795;SDS011;2924;51.458;7.046;2024-01-16T12:28:57;11.30;;;2.40;;
5795;SDS011;2924;51.458;7.046;2024-01-16T12:31:23;7.23;;;2.17;;
5795;SDS011;2924;51.458;7.046;2024-01-16T12:33:49;6.33;;;2.63;;
5795;SDS011;2924;51.458;7.046;2024-01-16T12:36:16;7.10;;;2.17;;
5795;SDS011;2924;51.458;7.046;2024-01-16T12:38:42;2.53;;;1.57;;
5795;SDS011;2924;51.458;7.046;2024-01-16T12:41:08;10.60;;;2.60;;
5795;SDS011;2924;51.458;7.046;2024-01-16T12:43:35;7.03;;;2.47;;
5795;SDS011;2924;51.458;7.046;2024-01-16T12:46:03;3.40;;;2.40;;
5795;SDS011;2924;51.458;7.046;2024-01-16T12:48:31;10.13;;;2.40;;
5795;SDS011;2924;51.458;7.046;2024-01-16T12:51:03;11.30;;;2.07;;
5795;SDS011;2924;51.458;7.046;2024-01-16T12:53:29;15.73;;;3.03;;
5795;SDS011;2924;51.458;7.046;2024-01-16T12:55:59;7.53;;;2.87;;
5795;SDS011;2924;51.458;7.046;2024-01-16T12:58:31;4.50;;;2.77;;
5795;SDS011;2924;51.458;7.046;2024-01-16T13:01:03;9.70;;;2.50;;
5795;SDS011;2924;51.458;7.046;2024-01-16T13:03:49;5.27;;;2.77;;
5795;SDS011;2924;51.458;7.046;2024-01-16T13:06:18;4.57;;;2.50;;
5795;SDS011;2924;51.458;7.046;2024-01-16T13:08:45;6.20;;;2.60;;
5795;SDS011;2924;51.458;7.046;2024-01-16T13:11:12;9.20;;;2.37;;
5795;SDS011;2924;51.458;7.046;2024-01-16T13:13:40;6.17;;;2.47;;
5795;SDS011;2924;51.458;7.046;2024-01-16T13:16:06;9.00;;;2.90;;
5795;SDS011;2924;51.458;7.046;2024-01-16T13:18:32;3.60;;;2.07;;
5795;SDS011;2924;51.458;7.046;2024-01-16T13:20:59;7.50;;;2.57;;
5795;SDS011;2924;51.458;7.046;2024-01-16T13:23:26;6.63;;;2.90;;
5795;SDS011;2924;51.458;7.046;2024-01-16T13:25:53;9.53;;;2.80;;
5795;SDS011;2924;51.458;7.046;2024-01-16T13:28:24;6.80;;;2.83;;
5795;SDS011;2924;51.458;7.046;2024-01-16T13:30:50;5.90;;;3.00;;
5795;SDS011;2924;51.458;7.046;2024-01-16T13:33:16;7.57;;;2.63;;
5795;SDS011;2924;51.458;7.046;2024-01-16T13:35:42;7.17;;;2.63;;
5795;SDS011;2924;51.458;7.046;2024-01-16T13:38:09;5.77;;;2.27;;
5795;SDS011;2924;51.458;7.046;2024-01-16T13:40:36;9.73;;;3.77;;
5795;SDS011;2924;51.458;7.046;2024-01-16T13:43:04;7.93;;;2.80;;
5795;SDS011;2924;51.458;7.046;2024-01-16T13:45:31;12.00;;;3.50;;
5795;SDS011;2924;51.458;7.046;2024-01-16T13:47:58;8.60;;;2.47;;
5795;SDS011;2924;51.458;7.046;2024-01-16T13:50:25;6.50;;;2.87;;
5795;SDS011;2924;51.458;7.046;2024-01-16T13:52:51;8.37;;;3.93;;
5795;SDS011;2924;51.458;7.046;2024-01-16T13:55:18;10.27;;;2.80;;
5795;SDS011;2924;51.458;7.046;2024-01-16T13:57:44;6.20;;;2.97;;
5795;SDS011;2924;51.458;7.046;2024-01-16T14:00:11;6.33;;;2.63;;
5795;SDS011;2924;51.458;7.046;2024-01-16T14:02:39;7.80;;;3.10;;
5795;SDS011;2924;51.458;7.046;2024-01-16T14:05:07;10.93;;;2.50;;
5795;SDS011;2924;51.458;7.046;2024-01-16T14:07:37;5.87;;;2.90;;
5795;SDS011;2924;51.458;7.046;2024-01-16T14:10:04;7.83;;;3.60;;
5795;SDS011;2924;51.458;7.046;2024-01-16T14:12:31;4.57;;;2.73;;
5795;SDS011;2924;51.458;7.046;2024-01-16T14:14:57;5.00;;;2.50;;
5795;SDS011;2924;51.458;7.046;2024-01-16T14:17:22;7.37;;;2.77;;
5795;SDS011;2924;51.458;7.046;2024-01-16T14:19:48;8.57;;;2.73;;
5795;SDS011;2924;51.458;7.046;2024-01-16T14:22:13;5.80;;;2.43;;
5795;SDS011;2924;51.458;7.046;2024-01-16T14:24:39;5.13;;;2.77;;
5795;SDS011;2924;51.458;7.046;2024-01-16T14:27:05;7.00;;;2.50;;
5795;SDS011;2924;51.458;7.046;2024-01-16T14:29:31;6.77;;;3.07;;
5795;SDS011;2924;51.458;7.046;2024-01-16T14:31:59;4.77;;;2.60;;
5795;SDS011;2924;51.458;7.046;2024-01-16T14:34:25;5.30;;;2.60;;
5795;SDS011;2924;51.458;7.046;2024-01-16T14:36:52;3.50;;;3.03;;
5795;SDS011;2924;51.458;7.046;2024-01-16T14:39:18;6.57;;;3.20;;
5795;SDS011;2924;51.458;7.046;2024-01-16T14:41:49;8.00;;;2.80;;
5795;SDS011;2924;51.458;7.046;2024-01-16T14:44:15;6.73;;;2.83;;
5795;SDS011;2924;51.458;7.046;2024-01-16T14:46:41;8.70;;;2.93;;
5795;SDS011;2924;51.458;7.046;2024-01-16T14:49:09;10.47;;;3.80;;
5795;SDS011;2924;51.458;7.046;2024-01-16T14:51:35;6.27;;;3.43;;
5795;SDS011;2924;51.458;7.046;2024-01-16T14:54:02;5.40;;;2.90;;
5795;SDS011;2924;51.458;7.046;2024-01-16T14:56:29;7.70;;;3.13;;
5795;SDS011;2924;51.458;7.046;2024-01-16T14:58:55;4.00;;;2.47;;
5795;SDS011;2924;51.458;7.046;2024-01-16T15:01:22;4.43;;;2.50;;
5795;SDS011;2924;51.458;7.046;2024-01-16T15:03:48;5.40;;;2.90;;
5795;SDS011;2924;51.458;7.046;2024-01-16T15:06:14;5.77;;;2.90;;
5795;SDS011;2924;51.458;7.046;2024-01-16T15:08:40;3.80;;;2.60;;
5795;SDS011;2924;51.458;7.046;2024-01-16T15:11:06;8.67;;;4.00;;
5795;SDS011;2924;51.458;7.046;2024-01-16T15:13:32;10.03;;;3.50;;